sensor_id;sensor_type;location;lat;lon;timestamp;temperature;humidity
41457;DHT22;27197;51.752;5.220;2022-09-09T00:00:40;23.60;62.50
41457;DHT22;27197;51.752;5.220;2022-09-09T00:03:16;23.60;62.80
41457;DHT22;27197;51.752;5.220;2022-09-09T00:06:06;23.40;62.00
41457;DHT22;27197;51.752;5.220;2022-09-09T00:08:41;23.10;65.30
41457;DHT22;27197;51.752;5.220;2022-09-09T00:11:05;23.40;66.10
41457;DHT22;27197;51.752;5.220;2022-09-09T00:13:48;23.50;65.90
41457;DHT22;27197;51.752;5.220;2022-09-09T00:16:32;23.50;65.50
41457;DHT22;27197;51.752;5.220;2022-09-09T00:19:15;23.60;65.20
41457;DHT22;27197;51.752;5.220;2022-09-09T00:21:50;23.70;64.90
41457;DHT22;27197;51.752;5.220;2022-09-09T00:29:53;23.70;63.90
41457;DHT22;27197;51.752;5.220;2022-09-09T00:32:28;23.80;64.50
41457;DHT22;27197;51.752;5.220;2022-09-09T00:35:34;23.80;60.40
41457;DHT22;27197;51.752;5.220;2022-09-09T00:37:35;23.80;64.60
41457;DHT22;27197;51.752;5.220;2022-09-09T00:51:59;24.00;63.80
41457;DHT22;27197;51.752;5.220;2022-09-09T00:54:45;24.00;63.70
41457;DHT22;27197;51.752;5.220;2022-09-09T00:57:31;24.00;61.00
41457;DHT22;27197;51.752;5.220;2022-09-09T01:02:47;24.00;63.70
41457;DHT22;27197;51.752;5.220;2022-09-09T01:05:20;24.00;63.60
41457;DHT22;27197;51.752;5.220;2022-09-09T01:07:50;24.00;63.30
41457;DHT22;27197;51.752;5.220;2022-09-09T01:10:37;23.90;63.50
41457;DHT22;27197;51.752;5.220;2022-09-09T01:13:13;23.90;62.30
41457;DHT22;27197;51.752;5.220;2022-09-09T01:15:42;23.90;63.60
41457;DHT22;27197;51.752;5.220;2022-09-09T01:18:16;23.80;63.20
41457;DHT22;27197;51.752;5.220;2022-09-09T01:24:25;23.80;61.30
41457;DHT22;27197;51.752;5.220;2022-09-09T01:26:58;23.70;62.70
41457;DHT22;27197;51.752;5.220;2022-09-09T01:29:25;23.80;63.70
41457;DHT22;27197;51.752;5.220;2022-09-09T01:32:00;23.80;63.60
41457;DHT22;27197;51.752;5.220;2022-09-09T01:34:36;23.90;63.50
41457;DHT22;27197;51.752;5.220;2022-09-09T01:37:10;23.90;63.40
41457;DHT22;27197;51.752;5.220;2022-09-09T01:39:43;23.80;62.50
41457;DHT22;27197;51.752;5.220;2022-09-09T01:42:16;23.80;63.10
41457;DHT22;27197;51.752;5.220;2022-09-09T01:44:46;23.80;63.30
41457;DHT22;27197;51.752;5.220;2022-09-09T01:47:17;23.80;60.70
41457;DHT22;27197;51.752;5.220;2022-09-09T01:49:47;23.90;63.60
41457;DHT22;27197;51.752;5.220;2022-09-09T01:52:18;23.80;61.80
41457;DHT22;27197;51.752;5.220;2022-09-09T01:54:49;23.70;63.00
41457;DHT22;27197;51.752;5.220;2022-09-09T01:57:24;23.80;63.20
41457;DHT22;27197;51.752;5.220;2022-09-09T02:00:09;23.80;63.20
41457;DHT22;27197;51.752;5.220;2022-09-09T02:03:07;23.90;63.20
41457;DHT22;27197;51.752;5.220;2022-09-09T02:05:54;23.90;62.90
41457;DHT22;27197;51.752;5.220;2022-09-09T02:08:29;23.90;61.50
41457;DHT22;27197;51.752;5.220;2022-09-09T02:11:17;23.90;62.80
41457;DHT22;27197;51.752;5.220;2022-09-09T02:13:52;23.90;62.80
41457;DHT22;27197;51.752;5.220;2022-09-09T02:16:27;23.90;62.70
41457;DHT22;27197;51.752;5.220;2022-09-09T02:19:31;23.60;62.20
41457;DHT22;27197;51.752;5.220;2022-09-09T02:21:59;23.60;63.30
41457;DHT22;27197;51.752;5.220;2022-09-09T02:24:32;23.70;63.30
41457;DHT22;27197;51.752;5.220;2022-09-09T02:27:08;23.80;63.10
41457;DHT22;27197;51.752;5.220;2022-09-09T02:29:40;23.60;62.80
41457;DHT22;27197;51.752;5.220;2022-09-09T02:32:17;23.70;63.30
41457;DHT22;27197;51.752;5.220;2022-09-09T02:34:49;23.80;63.20
41457;DHT22;27197;51.752;5.220;2022-09-09T02:37:21;23.80;62.90
41457;DHT22;27197;51.752;5.220;2022-09-09T02:39:50;23.80;62.90
41457;DHT22;27197;51.752;5.220;2022-09-09T02:42:24;23.80;62.30
41457;DHT22;27197;51.752;5.220;2022-09-09T02:44:53;23.80;62.20
41457;DHT22;27197;51.752;5.220;2022-09-09T02:47:36;23.60;62.50
41457;DHT22;27197;51.752;5.220;2022-09-09T02:50:17;23.50;61.70
41457;DHT22;27197;51.752;5.220;2022-09-09T02:53:01;23.30;63.70
41457;DHT22;27197;51.752;5.220;2022-09-09T02:58:12;23.50;62.90
41457;DHT22;27197;51.752;5.220;2022-09-09T03:00:47;23.30;62.30
41457;DHT22;27197;51.752;5.220;2022-09-09T03:03:19;23.30;62.20
41457;DHT22;27197;51.752;5.220;2022-09-09T03:05:49;23.10;64.00
41457;DHT22;27197;51.752;5.220;2022-09-09T03:08:20;23.30;64.40
41457;DHT22;27197;51.752;5.220;2022-09-09T03:10:50;23.40;64.00
41457;DHT22;27197;51.752;5.220;2022-09-09T03:13:21;23.60;63.70
41457;DHT22;27197;51.752;5.220;2022-09-09T03:15:51;23.60;63.00
41457;DHT22;27197;51.752;5.220;2022-09-09T03:18:21;23.60;63.40
41457;DHT22;27197;51.752;5.220;2022-09-09T03:20:51;23.70;63.20
41457;DHT22;27197;51.752;5.220;2022-09-09T03:23:21;23.70;63.00
41457;DHT22;27197;51.752;5.220;2022-09-09T03:25:52;23.70;62.90
41457;DHT22;27197;51.752;5.220;2022-09-09T03:28:24;23.40;62.60
41457;DHT22;27197;51.752;5.220;2022-09-09T03:31:02;23.50;63.40
41457;DHT22;27197;51.752;5.220;2022-09-09T03:33:34;23.50;63.10
41457;DHT22;27197;51.752;5.220;2022-09-09T03:36:06;23.50;61.50
41457;DHT22;27197;51.752;5.220;2022-09-09T03:38:36;23.50;63.30
41457;DHT22;27197;51.752;5.220;2022-09-09T03:41:07;23.50;63.20
41457;DHT22;27197;51.752;5.220;2022-09-09T03:43:37;23.50;63.10
41457;DHT22;27197;51.752;5.220;2022-09-09T03:46:06;23.60;62.50
41457;DHT22;27197;51.752;5.220;2022-09-09T03:48:36;23.60;63.10
41457;DHT22;27197;51.752;5.220;2022-09-09T03:51:06;23.60;63.00
41457;DHT22;27197;51.752;5.220;2022-09-09T03:53:36;23.60;62.60
41457;DHT22;27197;51.752;5.220;2022-09-09T03:56:07;23.50;62.70
41457;DHT22;27197;51.752;5.220;2022-09-09T03:58:38;23.50;63.00
41457;DHT22;27197;51.752;5.220;2022-09-09T04:01:16;23.60;62.40
41457;DHT22;27197;51.752;5.220;2022-09-09T04:03:46;23.50;63.10
41457;DHT22;27197;51.752;5.220;2022-09-09T04:06:16;23.20;59.60
41457;DHT22;27197;51.752;5.220;2022-09-09T04:08:50;22.80;64.10
41457;DHT22;27197;51.752;5.220;2022-09-09T04:11:19;22.80;63.00
41457;DHT22;27197;51.752;5.220;2022-09-09T04:13:50;22.50;60.70
41457;DHT22;27197;51.752;5.220;2022-09-09T04:16:24;22.60;65.50
41457;DHT22;27197;51.752;5.220;2022-09-09T04:18:53;22.70;64.90
41457;DHT22;27197;51.752;5.220;2022-09-09T04:21:23;22.50;63.60
41457;DHT22;27197;51.752;5.220;2022-09-09T04:23:54;22.50;64.80
41457;DHT22;27197;51.752;5.220;2022-09-09T04:26:24;22.60;65.70
41457;DHT22;27197;51.752;5.220;2022-09-09T04:28:54;22.80;64.50
41457;DHT22;27197;51.752;5.220;2022-09-09T04:31:25;22.50;60.80
41457;DHT22;27197;51.752;5.220;2022-09-09T04:33:56;22.50;64.80
41457;DHT22;27197;51.752;5.220;2022-09-09T04:36:26;22.40;64.60
41457;DHT22;27197;51.752;5.220;2022-09-09T04:38:56;22.40;63.90
41457;DHT22;27197;51.752;5.220;2022-09-09T04:41:27;22.00;62.80
41457;DHT22;27197;51.752;5.220;2022-09-09T04:43:58;21.90;67.10
41457;DHT22;27197;51.752;5.220;2022-09-09T04:46:27;22.20;65.80
41457;DHT22;27197;51.752;5.220;2022-09-09T04:48:58;22.40;66.70
41457;DHT22;27197;51.752;5.220;2022-09-09T04:51:28;22.50;64.90
41457;DHT22;27197;51.752;5.220;2022-09-09T04:53:58;22.40;62.90
41457;DHT22;27197;51.752;5.220;2022-09-09T04:56:31;22.10;61.50
41457;DHT22;27197;51.752;5.220;2022-09-09T04:58:59;21.80;65.90
41457;DHT22;27197;51.752;5.220;2022-09-09T05:01:30;21.90;67.90
41457;DHT22;27197;51.752;5.220;2022-09-09T05:03:59;22.20;64.80
41457;DHT22;27197;51.752;5.220;2022-09-09T05:06:30;22.20;67.40
41457;DHT22;27197;51.752;5.220;2022-09-09T05:09:00;22.50;66.70
41457;DHT22;27197;51.752;5.220;2022-09-09T05:11:33;22.40;65.80
41457;DHT22;27197;51.752;5.220;2022-09-09T05:14:06;22.30;65.50
41457;DHT22;27197;51.752;5.220;2022-09-09T05:16:36;22.30;62.30
41457;DHT22;27197;51.752;5.220;2022-09-09T05:19:11;22.30;66.20
41457;DHT22;27197;51.752;5.220;2022-09-09T05:21:41;22.20;66.50
41457;DHT22;27197;51.752;5.220;2022-09-09T05:24:10;22.20;66.90
41457;DHT22;27197;51.752;5.220;2022-09-09T05:26:41;22.30;64.10
41457;DHT22;27197;51.752;5.220;2022-09-09T05:29:09;22.50;66.30
41457;DHT22;27197;51.752;5.220;2022-09-09T05:31:40;22.40;66.90
41457;DHT22;27197;51.752;5.220;2022-09-09T05:34:11;22.60;67.30
41457;DHT22;27197;51.752;5.220;2022-09-09T05:36:41;22.60;67.30
41457;DHT22;27197;51.752;5.220;2022-09-09T05:39:10;22.50;66.70
41457;DHT22;27197;51.752;5.220;2022-09-09T05:41:39;22.70;67.90
41457;DHT22;27197;51.752;5.220;2022-09-09T05:44:11;22.30;63.00
41457;DHT22;27197;51.752;5.220;2022-09-09T05:46:40;22.00;68.90
41457;DHT22;27197;51.752;5.220;2022-09-09T05:49:11;22.20;72.60
41457;DHT22;27197;51.752;5.220;2022-09-09T05:51:43;22.40;71.70
41457;DHT22;27197;51.752;5.220;2022-09-09T05:54:13;22.50;66.10
41457;DHT22;27197;51.752;5.220;2022-09-09T05:56:42;22.40;72.00
41457;DHT22;27197;51.752;5.220;2022-09-09T05:59:14;22.30;66.30
41457;DHT22;27197;51.752;5.220;2022-09-09T06:01:45;22.10;73.80
41457;DHT22;27197;51.752;5.220;2022-09-09T06:04:15;22.10;71.20
41457;DHT22;27197;51.752;5.220;2022-09-09T06:06:45;22.20;73.30
41457;DHT22;27197;51.752;5.220;2022-09-09T06:09:15;22.10;65.30
41457;DHT22;27197;51.752;5.220;2022-09-09T06:11:47;21.60;70.30
41457;DHT22;27197;51.752;5.220;2022-09-09T06:14:17;21.60;67.20
41457;DHT22;27197;51.752;5.220;2022-09-09T06:16:47;21.90;68.40
41457;DHT22;27197;51.752;5.220;2022-09-09T06:19:20;21.70;69.10
41457;DHT22;27197;51.752;5.220;2022-09-09T06:21:49;22.00;73.20
41457;DHT22;27197;51.752;5.220;2022-09-09T06:24:19;21.90;68.10
41457;DHT22;27197;51.752;5.220;2022-09-09T06:26:50;21.90;71.10
41457;DHT22;27197;51.752;5.220;2022-09-09T06:29:20;22.10;70.60
41457;DHT22;27197;51.752;5.220;2022-09-09T06:31:51;22.10;70.30
41457;DHT22;27197;51.752;5.220;2022-09-09T06:34:23;22.10;67.70
41457;DHT22;27197;51.752;5.220;2022-09-09T06:36:53;22.00;69.80
41457;DHT22;27197;51.752;5.220;2022-09-09T06:39:24;22.30;70.30
41457;DHT22;27197;51.752;5.220;2022-09-09T06:41:54;22.40;69.50
41457;DHT22;27197;51.752;5.220;2022-09-09T06:44:24;22.20;69.10
41457;DHT22;27197;51.752;5.220;2022-09-09T06:46:56;22.00;66.90
41457;DHT22;27197;51.752;5.220;2022-09-09T06:49:27;22.10;71.30
41457;DHT22;27197;51.752;5.220;2022-09-09T06:51:58;22.40;69.40
41457;DHT22;27197;51.752;5.220;2022-09-09T06:54:28;22.40;69.70
41457;DHT22;27197;51.752;5.220;2022-09-09T06:56:58;22.60;70.00
41457;DHT22;27197;51.752;5.220;2022-09-09T06:59:27;22.40;68.10
41457;DHT22;27197;51.752;5.220;2022-09-09T07:01:57;22.20;68.30
41457;DHT22;27197;51.752;5.220;2022-09-09T07:04:31;22.00;67.80
41457;DHT22;27197;51.752;5.220;2022-09-09T07:07:01;22.00;69.80
41457;DHT22;27197;51.752;5.220;2022-09-09T07:09:31;22.10;68.10
41457;DHT22;27197;51.752;5.220;2022-09-09T07:12:01;22.00;68.70
41457;DHT22;27197;51.752;5.220;2022-09-09T07:14:33;21.90;69.90
41457;DHT22;27197;51.752;5.220;2022-09-09T07:17:04;22.00;70.20
41457;DHT22;27197;51.752;5.220;2022-09-09T07:19:34;22.00;68.50
41457;DHT22;27197;51.752;5.220;2022-09-09T07:22:04;22.20;71.10
41457;DHT22;27197;51.752;5.220;2022-09-09T07:24:37;22.10;70.20
41457;DHT22;27197;51.752;5.220;2022-09-09T07:27:07;22.00;68.60
41457;DHT22;27197;51.752;5.220;2022-09-09T07:29:40;21.90;71.00
41457;DHT22;27197;51.752;5.220;2022-09-09T07:32:12;21.90;69.30
41457;DHT22;27197;51.752;5.220;2022-09-09T07:34:41;21.90;69.20
41457;DHT22;27197;51.752;5.220;2022-09-09T07:37:12;21.80;70.70
41457;DHT22;27197;51.752;5.220;2022-09-09T07:39:46;21.80;70.10
41457;DHT22;27197;51.752;5.220;2022-09-09T07:42:17;22.10;70.80
41457;DHT22;27197;51.752;5.220;2022-09-09T07:44:47;21.80;69.20
41457;DHT22;27197;51.752;5.220;2022-09-09T07:47:17;22.00;70.00
41457;DHT22;27197;51.752;5.220;2022-09-09T07:49:50;22.00;69.60
41457;DHT22;27197;51.752;5.220;2022-09-09T07:52:19;21.90;69.30
41457;DHT22;27197;51.752;5.220;2022-09-09T07:54:52;21.70;69.80
41457;DHT22;27197;51.752;5.220;2022-09-09T07:57:22;21.80;70.40
41457;DHT22;27197;51.752;5.220;2022-09-09T07:59:51;21.70;70.10
41457;DHT22;27197;51.752;5.220;2022-09-09T08:02:20;21.80;70.30
41457;DHT22;27197;51.752;5.220;2022-09-09T08:04:56;21.80;68.90
41457;DHT22;27197;51.752;5.220;2022-09-09T08:07:24;21.80;71.00
41457;DHT22;27197;51.752;5.220;2022-09-09T08:10:00;21.90;70.70
41457;DHT22;27197;51.752;5.220;2022-09-09T08:12:28;22.00;69.90
41457;DHT22;27197;51.752;5.220;2022-09-09T08:14:59;21.90;69.20
41457;DHT22;27197;51.752;5.220;2022-09-09T08:17:29;21.70;69.00
41457;DHT22;27197;51.752;5.220;2022-09-09T08:20:01;21.50;70.80
41457;DHT22;27197;51.752;5.220;2022-09-09T08:22:31;21.70;70.60
41457;DHT22;27197;51.752;5.220;2022-09-09T08:25:02;21.80;70.30
41457;DHT22;27197;51.752;5.220;2022-09-09T08:27:32;21.40;69.00
41457;DHT22;27197;51.752;5.220;2022-09-09T08:29:59;21.60;71.20
41457;DHT22;27197;51.752;5.220;2022-09-09T08:32:30;21.60;70.10
41457;DHT22;27197;51.752;5.220;2022-09-09T08:35:00;21.60;71.00
41457;DHT22;27197;51.752;5.220;2022-09-09T08:37:31;21.80;69.90
41457;DHT22;27197;51.752;5.220;2022-09-09T08:40:03;21.80;69.30
41457;DHT22;27197;51.752;5.220;2022-09-09T08:42:47;21.70;69.50
41457;DHT22;27197;51.752;5.220;2022-09-09T08:45:31;21.60;68.80
41457;DHT22;27197;51.752;5.220;2022-09-09T08:48:08;21.70;69.50
41457;DHT22;27197;51.752;5.220;2022-09-09T08:50:36;21.30;70.00
41457;DHT22;27197;51.752;5.220;2022-09-09T08:53:12;21.50;71.40
41457;DHT22;27197;51.752;5.220;2022-09-09T08:55:47;22.00;70.70
41457;DHT22;27197;51.752;5.220;2022-09-09T08:58:27;21.90;69.00
41457;DHT22;27197;51.752;5.220;2022-09-09T09:06:59;21.40;71.00
41457;DHT22;27197;51.752;5.220;2022-09-09T09:09:36;21.50;70.80
41457;DHT22;27197;51.752;5.220;2022-09-09T09:12:10;21.80;69.90
41457;DHT22;27197;51.752;5.220;2022-09-09T09:14:37;21.90;68.50
41457;DHT22;27197;51.752;5.220;2022-09-09T09:17:12;21.70;70.60
41457;DHT22;27197;51.752;5.220;2022-09-09T09:19:46;21.90;70.90
41457;DHT22;27197;51.752;5.220;2022-09-09T09:22:30;21.80;69.50
41457;DHT22;27197;51.752;5.220;2022-09-09T09:25:22;21.90;70.30
41457;DHT22;27197;51.752;5.220;2022-09-09T09:28:07;21.90;69.90
41457;DHT22;27197;51.752;5.220;2022-09-09T09:30:42;21.60;70.10
41457;DHT22;27197;51.752;5.220;2022-09-09T09:36:12;21.70;71.00
41457;DHT22;27197;51.752;5.220;2022-09-09T09:39:02;21.70;69.30
41457;DHT22;27197;51.752;5.220;2022-09-09T09:41:34;21.60;69.70
41457;DHT22;27197;51.752;5.220;2022-09-09T09:44:28;21.60;70.60
41457;DHT22;27197;51.752;5.220;2022-09-09T09:46:38;21.30;70.60
41457;DHT22;27197;51.752;5.220;2022-09-09T09:49:09;21.20;71.00
41457;DHT22;27197;51.752;5.220;2022-09-09T09:51:41;21.10;71.10
41457;DHT22;27197;51.752;5.220;2022-09-09T09:54:30;21.00;72.40
41457;DHT22;27197;51.752;5.220;2022-09-09T09:57:11;21.10;72.20
41457;DHT22;27197;51.752;5.220;2022-09-09T09:59:39;21.30;72.40
41457;DHT22;27197;51.752;5.220;2022-09-09T10:02:19;21.40;72.30
41457;DHT22;27197;51.752;5.220;2022-09-09T10:05:00;21.60;72.10
41457;DHT22;27197;51.752;5.220;2022-09-09T10:07:32;21.70;72.20
41457;DHT22;27197;51.752;5.220;2022-09-09T10:10:04;21.70;71.30
41457;DHT22;27197;51.752;5.220;2022-09-09T10:13:03;21.50;72.30
41457;DHT22;27197;51.752;5.220;2022-09-09T10:15:53;21.50;73.20
41457;DHT22;27197;51.752;5.220;2022-09-09T10:26:55;22.00;73.70
41457;DHT22;27197;51.752;5.220;2022-09-09T10:29:57;21.80;74.40
41457;DHT22;27197;51.752;5.220;2022-09-09T10:32:37;22.00;72.80
41457;DHT22;27197;51.752;5.220;2022-09-09T10:35:30;21.90;73.70
41457;DHT22;27197;51.752;5.220;2022-09-09T10:38:16;22.00;72.30
41457;DHT22;27197;51.752;5.220;2022-09-09T10:46:40;22.10;72.50
41457;DHT22;27197;51.752;5.220;2022-09-09T10:57:49;21.90;73.00
41457;DHT22;27197;51.752;5.220;2022-09-09T11:00:45;21.90;72.80
41457;DHT22;27197;51.752;5.220;2022-09-09T11:03:01;21.90;73.40
41457;DHT22;27197;51.752;5.220;2022-09-09T11:05:49;22.00;72.70
41457;DHT22;27197;51.752;5.220;2022-09-09T11:08:28;21.50;73.20
41457;DHT22;27197;51.752;5.220;2022-09-09T11:11:04;21.60;73.50
41457;DHT22;27197;51.752;5.220;2022-09-09T11:14:11;21.60;74.10
41457;DHT22;27197;51.752;5.220;2022-09-09T11:16:51;21.80;73.20
41457;DHT22;27197;51.752;5.220;2022-09-09T11:19:35;21.80;72.90
41457;DHT22;27197;51.752;5.220;2022-09-09T11:25:17;21.80;73.30
41457;DHT22;27197;51.752;5.220;2022-09-09T11:28:26;22.10;72.60
41457;DHT22;27197;51.752;5.220;2022-09-09T11:39:47;22.10;73.20
41457;DHT22;27197;51.752;5.220;2022-09-09T11:42:22;21.90;73.40
41457;DHT22;27197;51.752;5.220;2022-09-09T11:44:53;21.70;74.70
41457;DHT22;27197;51.752;5.220;2022-09-09T11:47:32;21.70;74.80
41457;DHT22;27197;51.752;5.220;2022-09-09T11:53:02;21.70;74.90
41457;DHT22;27197;51.752;5.220;2022-09-09T11:55:28;21.70;75.40
41457;DHT22;27197;51.752;5.220;2022-09-09T11:58:05;21.90;74.80
41457;DHT22;27197;51.752;5.220;2022-09-09T12:00:43;22.00;74.50
41457;DHT22;27197;51.752;5.220;2022-09-09T12:03:35;21.80;74.50
41457;DHT22;27197;51.752;5.220;2022-09-09T12:06:19;21.70;75.00
41457;DHT22;27197;51.752;5.220;2022-09-09T12:08:50;21.70;75.00
41457;DHT22;27197;51.752;5.220;2022-09-09T12:11:30;21.70;74.90
41457;DHT22;27197;51.752;5.220;2022-09-09T12:14:02;21.60;74.90
41457;DHT22;27197;51.752;5.220;2022-09-09T12:16:38;21.50;75.60
41457;DHT22;27197;51.752;5.220;2022-09-09T12:19:06;21.50;75.40
41457;DHT22;27197;51.752;5.220;2022-09-09T12:24:31;21.60;74.90
41457;DHT22;27197;51.752;5.220;2022-09-09T12:27:01;21.50;75.40
41457;DHT22;27197;51.752;5.220;2022-09-09T12:29:53;21.60;74.40
41457;DHT22;27197;51.752;5.220;2022-09-09T12:32:15;21.40;75.00
41457;DHT22;27197;51.752;5.220;2022-09-09T12:35:02;21.20;75.70
41457;DHT22;27197;51.752;5.220;2022-09-09T12:37:48;21.20;75.80
41457;DHT22;27197;51.752;5.220;2022-09-09T12:40:21;21.20;76.60
41457;DHT22;27197;51.752;5.220;2022-09-09T12:42:53;21.40;75.40
41457;DHT22;27197;51.752;5.220;2022-09-09T12:45:33;21.50;75.40
41457;DHT22;27197;51.752;5.220;2022-09-09T12:48:05;21.60;73.80
41457;DHT22;27197;51.752;5.220;2022-09-09T12:50:35;21.50;75.20
41457;DHT22;27197;51.752;5.220;2022-09-09T12:53:19;21.60;74.20
41457;DHT22;27197;51.752;5.220;2022-09-09T12:55:48;21.60;74.50
41457;DHT22;27197;51.752;5.220;2022-09-09T12:58:11;21.60;74.10
41457;DHT22;27197;51.752;5.220;2022-09-09T13:00:55;21.50;74.50
41457;DHT22;27197;51.752;5.220;2022-09-09T13:03:26;21.50;74.60
41457;DHT22;27197;51.752;5.220;2022-09-09T13:06:12;21.50;74.50
41457;DHT22;27197;51.752;5.220;2022-09-09T13:08:43;21.60;74.10
41457;DHT22;27197;51.752;5.220;2022-09-09T13:11:19;21.50;74.20
41457;DHT22;27197;51.752;5.220;2022-09-09T13:13:53;21.60;74.80
41457;DHT22;27197;51.752;5.220;2022-09-09T13:16:30;21.60;74.60
41457;DHT22;27197;51.752;5.220;2022-09-09T13:19:24;21.60;75.40
41457;DHT22;27197;51.752;5.220;2022-09-09T13:21:36;21.60;75.50
41457;DHT22;27197;51.752;5.220;2022-09-09T13:27:02;21.50;75.40
41457;DHT22;27197;51.752;5.220;2022-09-09T13:29:38;21.60;75.10
41457;DHT22;27197;51.752;5.220;2022-09-09T13:32:17;21.50;74.70
41457;DHT22;27197;51.752;5.220;2022-09-09T13:34:56;21.70;74.70
41457;DHT22;27197;51.752;5.220;2022-09-09T13:37:39;21.60;74.60
41457;DHT22;27197;51.752;5.220;2022-09-09T13:40:02;21.70;75.40
41457;DHT22;27197;51.752;5.220;2022-09-09T13:42:36;21.70;74.30
41457;DHT22;27197;51.752;5.220;2022-09-09T13:45:14;21.70;74.90
41457;DHT22;27197;51.752;5.220;2022-09-09T13:47:38;21.60;75.40
41457;DHT22;27197;51.752;5.220;2022-09-09T13:52:58;21.50;74.60
41457;DHT22;27197;51.752;5.220;2022-09-09T13:55:29;21.60;75.10
41457;DHT22;27197;51.752;5.220;2022-09-09T13:58:04;21.60;74.00
41457;DHT22;27197;51.752;5.220;2022-09-09T14:00:34;21.50;74.40
41457;DHT22;27197;51.752;5.220;2022-09-09T14:03:05;21.60;74.10
41457;DHT22;27197;51.752;5.220;2022-09-09T14:05:37;21.60;74.50
41457;DHT22;27197;51.752;5.220;2022-09-09T14:08:10;21.50;74.70
41457;DHT22;27197;51.752;5.220;2022-09-09T14:10:40;21.50;74.30
41457;DHT22;27197;51.752;5.220;2022-09-09T14:13:10;21.60;73.80
41457;DHT22;27197;51.752;5.220;2022-09-09T14:15:43;21.50;74.10
41457;DHT22;27197;51.752;5.220;2022-09-09T14:18:13;21.50;73.90
41457;DHT22;27197;51.752;5.220;2022-09-09T14:20:45;21.60;74.10
41457;DHT22;27197;51.752;5.220;2022-09-09T14:23:14;21.60;73.80
41457;DHT22;27197;51.752;5.220;2022-09-09T14:25:45;21.60;72.80
41457;DHT22;27197;51.752;5.220;2022-09-09T14:28:18;21.70;73.30
41457;DHT22;27197;51.752;5.220;2022-09-09T14:30:51;21.80;72.40
41457;DHT22;27197;51.752;5.220;2022-09-09T14:33:20;21.80;72.20
41457;DHT22;27197;51.752;5.220;2022-09-09T14:36:02;22.00;72.00
41457;DHT22;27197;51.752;5.220;2022-09-09T14:38:22;22.00;71.20
41457;DHT22;27197;51.752;5.220;2022-09-09T14:40:52;22.20;70.30
41457;DHT22;27197;51.752;5.220;2022-09-09T14:43:25;22.30;69.00
41457;DHT22;27197;51.752;5.220;2022-09-09T14:45:55;22.30;69.10
41457;DHT22;27197;51.752;5.220;2022-09-09T14:48:26;22.30;69.40
41457;DHT22;27197;51.752;5.220;2022-09-09T14:50:56;22.50;68.30
41457;DHT22;27197;51.752;5.220;2022-09-09T14:53:27;22.70;67.40
41457;DHT22;27197;51.752;5.220;2022-09-09T14:56:04;22.60;66.50
41457;DHT22;27197;51.752;5.220;2022-09-09T14:58:36;22.50;66.10
41457;DHT22;27197;51.752;5.220;2022-09-09T15:01:10;22.70;65.10
41457;DHT22;27197;51.752;5.220;2022-09-09T15:03:47;22.70;65.00
41457;DHT22;27197;51.752;5.220;2022-09-09T15:06:17;22.70;64.30
41457;DHT22;27197;51.752;5.220;2022-09-09T15:08:49;22.80;64.70
41457;DHT22;27197;51.752;5.220;2022-09-09T15:11:21;22.90;64.10
41457;DHT22;27197;51.752;5.220;2022-09-09T15:13:53;22.80;64.10
41457;DHT22;27197;51.752;5.220;2022-09-09T15:16:26;22.80;64.20
41457;DHT22;27197;51.752;5.220;2022-09-09T15:18:59;22.80;64.50
41457;DHT22;27197;51.752;5.220;2022-09-09T15:21:35;22.70;65.00
41457;DHT22;27197;51.752;5.220;2022-09-09T15:24:04;22.60;65.20
41457;DHT22;27197;51.752;5.220;2022-09-09T15:26:37;22.30;66.40
41457;DHT22;27197;51.752;5.220;2022-09-09T15:29:10;22.50;66.20
41457;DHT22;27197;51.752;5.220;2022-09-09T15:31:40;22.50;66.00
41457;DHT22;27197;51.752;5.220;2022-09-09T15:34:14;22.60;66.10
41457;DHT22;27197;51.752;5.220;2022-09-09T15:36:47;22.60;65.60
41457;DHT22;27197;51.752;5.220;2022-09-09T15:39:19;22.70;65.40
41457;DHT22;27197;51.752;5.220;2022-09-09T15:41:49;22.60;66.10
41457;DHT22;27197;51.752;5.220;2022-09-09T15:44:20;22.50;66.30
41457;DHT22;27197;51.752;5.220;2022-09-09T15:46:54;22.50;66.40
41457;DHT22;27197;51.752;5.220;2022-09-09T15:49:27;22.50;66.90
41457;DHT22;27197;51.752;5.220;2022-09-09T15:51:59;22.50;66.90
41457;DHT22;27197;51.752;5.220;2022-09-09T15:54:35;22.50;67.30
41457;DHT22;27197;51.752;5.220;2022-09-09T15:57:10;22.50;67.30
41457;DHT22;27197;51.752;5.220;2022-09-09T15:59:39;22.60;67.00
41457;DHT22;27197;51.752;5.220;2022-09-09T16:02:10;22.60;67.30
41457;DHT22;27197;51.752;5.220;2022-09-09T16:04:40;22.70;67.50
41457;DHT22;27197;51.752;5.220;2022-09-09T16:07:10;22.60;67.10
41457;DHT22;27197;51.752;5.220;2022-09-09T16:09:40;22.70;67.10
41457;DHT22;27197;51.752;5.220;2022-09-09T16:12:13;22.60;67.80
41457;DHT22;27197;51.752;5.220;2022-09-09T16:14:41;22.60;67.70
41457;DHT22;27197;51.752;5.220;2022-09-09T16:17:11;22.70;67.40
41457;DHT22;27197;51.752;5.220;2022-09-09T16:19:41;22.70;67.30
41457;DHT22;27197;51.752;5.220;2022-09-09T16:22:16;22.70;67.10
41457;DHT22;27197;51.752;5.220;2022-09-09T16:24:45;22.50;67.30
41457;DHT22;27197;51.752;5.220;2022-09-09T16:27:15;22.60;67.50
41457;DHT22;27197;51.752;5.220;2022-09-09T16:29:45;22.70;66.50
41457;DHT22;27197;51.752;5.220;2022-09-09T16:32:15;22.70;66.20
41457;DHT22;27197;51.752;5.220;2022-09-09T16:34:45;22.60;66.50
41457;DHT22;27197;51.752;5.220;2022-09-09T16:37:16;22.70;64.70
41457;DHT22;27197;51.752;5.220;2022-09-09T16:39:46;22.70;64.30
41457;DHT22;27197;51.752;5.220;2022-09-09T16:42:16;22.60;64.10
41457;DHT22;27197;51.752;5.220;2022-09-09T16:44:46;22.60;64.70
41457;DHT22;27197;51.752;5.220;2022-09-09T16:47:16;22.50;64.30
41457;DHT22;27197;51.752;5.220;2022-09-09T16:49:46;22.40;64.40
41457;DHT22;27197;51.752;5.220;2022-09-09T16:52:15;22.30;65.10
41457;DHT22;27197;51.752;5.220;2022-09-09T16:54:46;22.30;65.80
41457;DHT22;27197;51.752;5.220;2022-09-09T16:57:15;22.30;64.90
41457;DHT22;27197;51.752;5.220;2022-09-09T16:59:45;22.30;66.20
41457;DHT22;27197;51.752;5.220;2022-09-09T17:02:15;22.40;64.70
41457;DHT22;27197;51.752;5.220;2022-09-09T17:04:45;22.40;66.20
41457;DHT22;27197;51.752;5.220;2022-09-09T17:07:18;22.30;65.40
41457;DHT22;27197;51.752;5.220;2022-09-09T17:09:48;22.30;65.30
41457;DHT22;27197;51.752;5.220;2022-09-09T17:12:19;22.30;66.50
41457;DHT22;27197;51.752;5.220;2022-09-09T17:14:49;22.20;66.90
41457;DHT22;27197;51.752;5.220;2022-09-09T17:17:20;22.10;67.60
41457;DHT22;27197;51.752;5.220;2022-09-09T17:19:50;21.90;68.70
41457;DHT22;27197;51.752;5.220;2022-09-09T17:22:20;22.10;67.10
41457;DHT22;27197;51.752;5.220;2022-09-09T17:24:54;22.20;65.10
41457;DHT22;27197;51.752;5.220;2022-09-09T17:27:24;22.20;68.20
41457;DHT22;27197;51.752;5.220;2022-09-09T17:29:54;22.10;67.90